createdAt,value
2018-07-11T00:04:48.833Z,8.17
2018-07-11T00:09:45.864Z,8.40
2018-07-11T00:14:42.651Z,7.83
2018-07-11T00:19:39.681Z,7.77
2018-07-11T00:24:36.483Z,8.20
2018-07-11T00:29:33.606Z,8.13
2018-07-11T00:34:30.441Z,7.97
2018-07-11T00:39:27.548Z,7.80
2018-07-11T00:44:24.702Z,6.87
2018-07-11T00:49:22.106Z,6.93
2018-07-11T00:54:19.251Z,6.90
2018-07-11T00:59:25.983Z,6.43
2018-07-11T01:04:23.097Z,6.90
2018-07-11T01:09:19.934Z,7.13
2018-07-11T01:14:17.039Z,6.47
2018-07-11T01:19:15.359Z,6.67
2018-07-11T01:24:12.380Z,6.63
2018-07-11T01:29:09.762Z,6.70
2018-07-11T01:34:06.508Z,6.10
2018-07-11T01:39:04.501Z,6.23
2018-07-11T01:44:01.460Z,6.80
2018-07-11T01:48:58.521Z,6.13
2018-07-11T01:53:56.225Z,5.60
2018-07-11T01:58:53.372Z,5.53
2018-07-11T02:03:50.391Z,5.93
2018-07-11T02:08:47.217Z,5.63
2018-07-11T02:13:44.344Z,6.10
2018-07-11T02:18:41.144Z,5.93
2018-07-11T02:23:38.696Z,6.33
2018-07-11T02:28:35.456Z,5.93
2018-07-11T02:33:32.709Z,6.37
2018-07-11T02:38:30.028Z,5.77
2018-07-11T02:43:26.904Z,6.10
2018-07-11T02:48:24.325Z,6.50
2018-07-11T02:53:22.683Z,6.40
2018-07-11T02:58:19.775Z,6.20
2018-07-11T03:03:16.794Z,6.80
2018-07-11T03:08:14.316Z,5.87
2018-07-11T03:13:11.142Z,6.67
2018-07-11T03:18:08.439Z,6.70
2018-07-11T03:23:05.288Z,6.27
2018-07-11T03:28:02.379Z,7.07
2018-07-11T03:32:59.181Z,6.40
2018-07-11T03:37:56.298Z,6.53
2018-07-11T03:42:53.189Z,6.80
2018-07-11T03:47:50.224Z,6.20
2018-07-11T03:52:47.679Z,6.37
2018-07-11T03:57:44.653Z,6.03
2018-07-11T04:02:41.813Z,6.50
2018-07-11T04:07:38.804Z,7.57
2018-07-11T04:12:35.878Z,7.13
2018-07-11T04:17:38.988Z,7.93
2018-07-11T04:22:35.819Z,8.10
2018-07-11T04:27:33.000Z,9.20
2018-07-11T04:32:29.881Z,9.23
2018-07-11T04:37:27.014Z,8.43
2018-07-11T04:42:23.934Z,8.43
2018-07-11T04:47:21.319Z,8.83
2018-07-11T04:52:18.299Z,8.57
2018-07-11T04:57:15.905Z,8.57
2018-07-11T05:02:12.711Z,9.53
2018-07-11T05:07:09.931Z,10.00
2018-07-11T05:12:06.749Z,9.07
2018-07-11T05:17:04.014Z,9.40
2018-07-11T05:22:00.903Z,8.97
2018-07-11T05:26:58.063Z,9.80
2018-07-11T05:31:55.039Z,9.63
2018-07-11T05:36:52.192Z,9.50
2018-07-11T05:41:48.975Z,10.10
2018-07-11T05:46:46.114Z,10.00
2018-07-11T05:51:42.861Z,10.00
2018-07-11T05:56:40.157Z,9.77
2018-07-11T06:01:36.974Z,11.00
2018-07-11T06:06:34.179Z,11.03
2018-07-11T06:11:31.253Z,9.97
2018-07-11T06:16:28.024Z,10.77
2018-07-11T06:21:26.302Z,11.13
2018-07-11T06:26:23.215Z,9.90
2018-07-11T06:31:20.252Z,10.93
2018-07-11T06:36:17.139Z,10.73
2018-07-11T06:41:14.215Z,11.93
2018-07-11T06:46:11.093Z,10.97
2018-07-11T06:51:08.371Z,10.67
2018-07-11T06:56:05.746Z,10.13
2018-07-11T07:01:02.807Z,11.70
2018-07-11T07:06:00.163Z,10.60
2018-07-11T07:10:56.962Z,11.83
2018-07-11T07:15:54.107Z,11.87
2018-07-11T07:20:50.945Z,10.80
2018-07-11T07:25:47.959Z,11.37
2018-07-11T07:30:44.909Z,11.40
2018-07-11T07:35:41.823Z,9.57
2018-07-11T07:40:39.039Z,10.67
2018-07-11T07:45:36.202Z,9.97
2018-07-11T07:50:32.968Z,11.40
2018-07-11T07:55:30.013Z,10.87
2018-07-11T08:00:27.061Z,10.93
2018-07-11T08:05:24.252Z,11.17
2018-07-11T08:10:21.032Z,11.40
2018-07-11T08:15:18.381Z,11.83
2018-07-11T08:20:15.158Z,9.87
2018-07-11T08:26:21.957Z,10.00
2018-07-11T08:31:24.552Z,8.77
2018-07-11T08:36:30.010Z,8.47
2018-07-11T08:41:36.164Z,9.03
2018-07-11T08:46:48.704Z,8.17
2018-07-11T08:51:51.539Z,7.20
2018-07-11T08:56:55.871Z,7.22
2018-07-11T09:02:01.706Z,7.72
2018-07-11T09:07:05.460Z,7.20
2018-07-11T09:12:13.805Z,6.47
2018-07-11T09:17:14.604Z,6.00
2018-07-11T09:22:17.739Z,6.28
2018-07-11T09:27:14.745Z,5.90
2018-07-11T09:32:12.602Z,5.60
2018-07-11T09:37:09.938Z,5.72
2018-07-11T09:42:06.754Z,4.85
2018-07-11T09:47:09.910Z,4.83
2018-07-11T09:52:06.840Z,5.12
2018-07-11T09:57:04.047Z,5.22
2018-07-11T10:02:01.311Z,4.60
2018-07-11T10:06:58.127Z,4.80
2018-07-11T10:11:55.132Z,4.63
2018-07-11T10:16:51.942Z,4.43
2018-07-11T10:21:49.157Z,5.05
2018-07-11T10:26:46.019Z,4.95
2018-07-11T10:31:42.931Z,4.78
2018-07-11T10:36:39.946Z,4.25
2018-07-11T10:41:36.735Z,4.65
2018-07-11T10:46:33.907Z,4.65
2018-07-11T10:51:30.706Z,4.47
2018-07-11T10:56:27.677Z,4.80
2018-07-11T11:01:24.780Z,4.47
2018-07-11T11:06:22.018Z,4.40
2018-07-11T11:11:18.814Z,4.20
2018-07-11T11:16:15.944Z,4.50
2018-07-11T11:21:12.755Z,4.33
2018-07-11T11:26:09.977Z,4.17
2018-07-11T11:31:06.899Z,4.07
2018-07-11T11:36:04.094Z,4.12
2018-07-11T11:41:01.283Z,3.90
2018-07-11T11:45:58.429Z,4.03
2018-07-11T11:50:55.340Z,3.80
2018-07-11T11:55:52.204Z,4.17
2018-07-11T12:00:48.945Z,5.15
2018-07-11T12:05:46.067Z,4.25
2018-07-11T12:10:43.767Z,4.10
2018-07-11T12:15:40.537Z,4.60
2018-07-11T12:20:37.563Z,4.20
2018-07-11T12:25:34.412Z,5.30
2018-07-11T12:30:31.382Z,5.70
2018-07-11T12:35:28.520Z,5.60
2018-07-11T12:40:25.378Z,4.80
2018-07-11T12:45:22.396Z,5.00
2018-07-11T12:50:19.240Z,4.95
2018-07-11T12:55:16.213Z,4.40
2018-07-11T13:00:13.047Z,4.58
2018-07-11T13:05:10.739Z,4.62
2018-07-11T13:10:07.490Z,3.30
2018-07-11T13:15:04.774Z,2.98
2018-07-11T13:20:02.421Z,10.75
2018-07-11T13:24:59.547Z,4.15
2018-07-11T13:29:56.357Z,2.70
2018-07-11T13:34:53.431Z,3.33
2018-07-11T13:39:50.187Z,8.10
2018-07-11T13:44:47.364Z,3.70
2018-07-11T13:49:44.188Z,2.80
2018-07-11T13:54:41.296Z,2.27
2018-07-11T13:59:38.468Z,3.10
2018-07-11T14:04:35.407Z,9.08
2018-07-11T14:09:33.102Z,2.72
2018-07-11T14:14:29.984Z,2.40
2018-07-11T14:19:27.318Z,2.52
2018-07-11T14:24:24.280Z,2.90
2018-07-11T14:29:22.273Z,2.17
2018-07-11T14:34:19.053Z,3.00
2018-07-11T14:39:16.101Z,2.95
2018-07-11T14:44:12.929Z,4.22
2018-07-11T14:49:09.925Z,3.58
2018-07-11T14:54:06.736Z,3.65
2018-07-11T14:59:03.956Z,2.70
2018-07-11T15:04:01.329Z,2.60
2018-07-11T15:08:58.130Z,2.45
2018-07-11T15:13:55.245Z,2.30
2018-07-11T15:18:52.436Z,2.40
2018-07-11T15:23:49.384Z,2.90
2018-07-11T15:28:46.546Z,2.40
2018-07-11T15:33:43.383Z,2.70
2018-07-11T15:38:40.507Z,3.47
2018-07-11T15:43:37.327Z,4.87
2018-07-11T15:48:35.611Z,4.83
2018-07-11T15:53:32.508Z,3.77
2018-07-11T15:58:30.877Z,2.65
2018-07-11T16:03:27.895Z,4.03
2018-07-11T16:08:25.526Z,8.18
2018-07-11T16:13:22.384Z,4.83
2018-07-11T16:18:19.607Z,2.30
2018-07-11T16:23:16.496Z,2.62
2018-07-11T16:28:14.478Z,2.12
2018-07-11T16:33:11.309Z,8.03
2018-07-11T16:38:08.316Z,1.90
2018-07-11T16:43:05.693Z,1.90
2018-07-11T16:48:02.767Z,1.67
2018-07-11T16:52:59.910Z,10.93
2018-07-11T16:57:57.213Z,2.00
2018-07-11T17:02:59.386Z,1.77
2018-07-11T17:07:57.543Z,1.72
2018-07-11T17:13:00.282Z,2.10
2018-07-11T17:17:57.068Z,2.65
2018-07-11T17:22:59.395Z,2.30
2018-07-11T17:27:56.339Z,2.60
2018-07-11T17:33:00.197Z,3.20
2018-07-11T17:37:57.247Z,2.70
2018-07-11T17:42:54.442Z,2.43
2018-07-11T17:48:01.038Z,5.57
2018-07-11T17:53:03.799Z,2.40
2018-07-11T17:58:07.094Z,2.70
2018-07-11T18:03:04.477Z,2.97
2018-07-11T18:08:05.463Z,11.90
2018-07-11T18:13:08.168Z,3.30
2018-07-11T18:18:18.839Z,3.07
2018-07-11T18:23:18.405Z,3.00
2018-07-11T18:28:20.641Z,2.90
2018-07-11T18:33:23.645Z,7.20
2018-07-11T18:38:22.215Z,4.23
2018-07-11T18:43:56.086Z,2.70
2018-07-11T18:48:59.384Z,2.80
2018-07-11T18:53:57.466Z,3.90
2018-07-11T18:59:02.738Z,3.37
2018-07-11T19:06:09.790Z,3.40
2018-07-11T19:11:11.422Z,3.53
2018-07-11T19:16:12.881Z,3.60
2018-07-11T19:21:11.398Z,4.97
2018-07-11T19:26:14.189Z,3.97
2018-07-11T19:31:16.671Z,3.00
2018-07-11T19:37:19.986Z,3.00
2018-07-11T19:42:24.291Z,3.17
2018-07-11T19:47:28.964Z,2.70
2018-07-11T19:52:30.759Z,5.07
2018-07-11T19:57:27.973Z,3.03
2018-07-11T20:02:25.067Z,2.47
2018-07-11T20:07:22.248Z,2.60
2018-07-11T20:12:20.124Z,3.03
2018-07-11T20:17:16.919Z,22.47
2018-07-11T20:22:14.048Z,2.50
2018-07-11T20:27:11.120Z,3.37
2018-07-11T20:32:07.960Z,3.30
2018-07-11T20:37:05.351Z,3.50
2018-07-11T20:42:01.712Z,3.10
2018-07-11T20:46:58.973Z,3.23
2018-07-11T20:51:55.770Z,3.07
2018-07-11T20:56:52.784Z,3.40
2018-07-11T21:01:55.690Z,3.33
2018-07-11T21:07:57.174Z,3.47
2018-07-11T21:13:00.053Z,3.60
2018-07-11T21:19:03.076Z,3.57
2018-07-11T21:24:00.443Z,3.13
2018-07-11T21:28:57.317Z,3.87
2018-07-11T21:33:54.359Z,3.60
2018-07-11T21:38:52.192Z,3.53
2018-07-11T21:43:49.114Z,3.40
2018-07-11T21:48:45.902Z,3.63
2018-07-11T21:53:43.167Z,3.50
2018-07-11T21:58:40.212Z,3.00
2018-07-11T22:03:37.274Z,3.30
2018-07-11T22:08:34.390Z,3.10
2018-07-11T22:13:31.506Z,3.50
2018-07-11T22:18:32.623Z,3.37
2018-07-11T22:23:29.340Z,4.27
2018-07-11T22:28:25.597Z,3.70
2018-07-11T22:33:22.224Z,4.00
2018-07-11T22:38:18.439Z,3.27
2018-07-11T22:43:15.637Z,4.23
2018-07-11T22:48:11.876Z,3.70
2018-07-11T22:53:08.329Z,4.37
2018-07-11T22:58:04.532Z,3.23
2018-07-11T23:03:01.129Z,4.20
2018-07-11T23:07:57.408Z,4.00
2018-07-11T23:12:54.133Z,4.17
2018-07-11T23:17:50.345Z,4.30
2018-07-11T23:22:46.932Z,4.23
2018-07-11T23:27:43.193Z,4.70
2018-07-11T23:32:39.718Z,4.47
2018-07-11T23:37:35.927Z,4.37
2018-07-11T23:42:32.560Z,4.40
2018-07-11T23:47:28.761Z,4.10
2018-07-11T23:52:25.158Z,4.57
2018-07-11T23:57:21.384Z,4.37
